sensor_id;sensor_type;location;lat;lon;timestamp;pressure;altitude;pressure_sealevel;temperature;humidity
71938;BME280;59810;48.800;9.086;2023-05-20T00:01:02;97754.63;;;10.88;81.74
71938;BME280;59810;48.800;9.086;2023-05-20T00:03:28;97754.31;;;10.84;82.26
71938;BME280;59810;48.800;9.086;2023-05-20T00:05:54;97763.50;;;10.83;82.33
71938;BME280;59810;48.800;9.086;2023-05-20T00:08:21;97764.06;;;10.85;81.80
71938;BME280;59810;48.800;9.086;2023-05-20T00:10:49;97761.59;;;10.84;82.72
71938;BME280;59810;48.800;9.086;2023-05-20T00:13:17;97752.88;;;10.77;83.01
71938;BME280;59810;48.800;9.086;2023-05-20T00:15:43;97752.88;;;10.77;82.57
71938;BME280;59810;48.800;9.086;2023-05-20T00:18:11;97755.88;;;10.80;82.47
71938;BME280;59810;48.800;9.086;2023-05-20T00:20:40;97757.78;;;10.80;82.25
71938;BME280;59810;48.800;9.086;2023-05-20T00:23:05;97759.66;;;10.79;82.10
71938;BME280;59810;48.800;9.086;2023-05-20T00:25:33;97756.88;;;10.74;82.44
71938;BME280;59810;48.800;9.086;2023-05-20T00:28:01;97752.06;;;10.76;82.38
71938;BME280;59810;48.800;9.086;2023-05-20T00:30:26;97749.09;;;10.78;82.42
71938;BME280;59810;48.800;9.086;2023-05-20T00:32:52;97749.75;;;10.68;83.01
71938;BME280;59810;48.800;9.086;2023-05-20T00:35:17;97756.31;;;10.55;84.26
71938;BME280;59810;48.800;9.086;2023-05-20T00:37:43;97745.34;;;10.62;83.68
71938;BME280;59810;48.800;9.086;2023-05-20T00:40:11;97758.75;;;10.57;83.78
71938;BME280;59810;48.800;9.086;2023-05-20T00:42:37;97756.13;;;10.62;82.69
71938;BME280;59810;48.800;9.086;2023-05-20T00:45:03;97755.16;;;10.68;82.17
71938;BME280;59810;48.800;9.086;2023-05-20T00:47:31;97758.41;;;10.70;82.40
71938;BME280;59810;48.800;9.086;2023-05-20T00:50:03;97758.41;;;10.70;83.15
71938;BME280;59810;48.800;9.086;2023-05-20T00:52:30;97756.06;;;10.74;82.67
71938;BME280;59810;48.800;9.086;2023-05-20T00:54:59;97754.41;;;10.73;83.99
71938;BME280;59810;48.800;9.086;2023-05-20T00:57:25;97755.72;;;10.70;84.15
71938;BME280;59810;48.800;9.086;2023-05-20T00:59:54;97746.56;;;10.71;83.82
71938;BME280;59810;48.800;9.086;2023-05-20T01:02:22;97750.72;;;10.79;83.51
71938;BME280;59810;48.800;9.086;2023-05-20T01:04:48;97745.41;;;10.84;82.76
71938;BME280;59810;48.800;9.086;2023-05-20T01:07:15;97748.41;;;10.87;82.07
71938;BME280;59810;48.800;9.086;2023-05-20T01:09:42;97742.53;;;10.90;81.65
71938;BME280;59810;48.800;9.086;2023-05-20T01:12:26;97745.53;;;10.94;81.84
71938;BME280;59810;48.800;9.086;2023-05-20T01:15:11;97743.16;;;10.98;81.69
71938;BME280;59810;48.800;9.086;2023-05-20T01:17:51;97740.75;;;11.01;81.45
71938;BME280;59810;48.800;9.086;2023-05-20T01:20:22;97735.91;;;11.03;81.69
71938;BME280;59810;48.800;9.086;2023-05-20T01:22:53;97736.28;;;11.07;81.64
71938;BME280;59810;48.800;9.086;2023-05-20T01:25:19;97730.38;;;11.10;81.17
71938;BME280;59810;48.800;9.086;2023-05-20T01:27:45;97736.59;;;11.10;81.27
71938;BME280;59810;48.800;9.086;2023-05-20T01:30:11;97736.34;;;11.12;81.17
71938;BME280;59810;48.800;9.086;2023-05-20T01:32:49;97732.81;;;11.11;81.17
71938;BME280;59810;48.800;9.086;2023-05-20T01:35:19;97730.09;;;11.11;81.19
71938;BME280;59810;48.800;9.086;2023-05-20T01:37:46;97728.47;;;11.10;82.49
71938;BME280;59810;48.800;9.086;2023-05-20T01:40:15;97720.38;;;11.10;82.27
71938;BME280;59810;48.800;9.086;2023-05-20T01:42:45;97722.25;;;11.10;82.08
71938;BME280;59810;48.800;9.086;2023-05-20T01:45:19;97725.78;;;11.10;81.96
71938;BME280;59810;48.800;9.086;2023-05-20T01:47:48;97726.59;;;11.11;81.77
71938;BME280;59810;48.800;9.086;2023-05-20T01:50:14;97725.53;;;11.12;81.97
71938;BME280;59810;48.800;9.086;2023-05-20T01:52:39;97724.72;;;11.11;82.18
71938;BME280;59810;48.800;9.086;2023-05-20T01:55:05;97727.16;;;11.13;82.17
71938;BME280;59810;48.800;9.086;2023-05-20T01:57:31;97731.09;;;11.05;83.34
71938;BME280;59810;48.800;9.086;2023-05-20T02:00:01;97728.16;;;11.07;83.05
71938;BME280;59810;48.800;9.086;2023-05-20T02:02:26;97733.56;;;11.07;82.71
71938;BME280;59810;48.800;9.086;2023-05-20T02:04:55;97734.03;;;11.04;82.90
71938;BME280;59810;48.800;9.086;2023-05-20T02:07:20;97727.56;;;11.05;82.84
71938;BME280;59810;48.800;9.086;2023-05-20T02:09:46;97727.09;;;11.08;82.76
71938;BME280;59810;48.800;9.086;2023-05-20T02:12:12;97721.34;;;11.04;83.84
71938;BME280;59810;48.800;9.086;2023-05-20T02:14:42;97719.47;;;11.05;82.71
71938;BME280;59810;48.800;9.086;2023-05-20T02:17:08;97719.25;;;11.06;83.10
71938;BME280;59810;48.800;9.086;2023-05-20T02:19:33;97713.03;;;11.06;83.25
71938;BME280;59810;48.800;9.086;2023-05-20T02:22:01;97711.34;;;11.05;83.45
71938;BME280;59810;48.800;9.086;2023-05-20T02:24:31;97710.53;;;11.04;83.26
71938;BME280;59810;48.800;9.086;2023-05-20T02:26:56;97724.31;;;11.03;83.32
71938;BME280;59810;48.800;9.086;2023-05-20T02:29:23;97721.03;;;11.01;83.52
71938;BME280;59810;48.800;9.086;2023-05-20T02:31:49;97721.03;;;11.01;83.82
71938;BME280;59810;48.800;9.086;2023-05-20T02:34:20;97717.78;;;10.99;83.58
71938;BME280;59810;48.800;9.086;2023-05-20T02:36:45;97717.13;;;10.91;84.68
71938;BME280;59810;48.800;9.086;2023-05-20T02:39:10;97719.28;;;10.89;84.29
71938;BME280;59810;48.800;9.086;2023-05-20T02:41:37;97719.41;;;10.78;85.58
71938;BME280;59810;48.800;9.086;2023-05-20T02:44:02;97714.81;;;10.78;85.18
71938;BME280;59810;48.800;9.086;2023-05-20T02:46:27;97713.19;;;10.77;85.43
71938;BME280;59810;48.800;9.086;2023-05-20T02:48:53;97713.56;;;10.69;85.68
71938;BME280;59810;48.800;9.086;2023-05-20T02:51:18;97711.75;;;10.53;87.26
71938;BME280;59810;48.800;9.086;2023-05-20T02:53:46;97719.09;;;10.57;86.98
71938;BME280;59810;48.800;9.086;2023-05-20T02:56:14;97709.09;;;10.58;86.47
71938;BME280;59810;48.800;9.086;2023-05-20T02:58:42;97712.63;;;10.58;86.89
71938;BME280;59810;48.800;9.086;2023-05-20T03:01:08;97717.53;;;10.62;86.54
71938;BME280;59810;48.800;9.086;2023-05-20T03:03:33;97722.09;;;10.61;86.94
71938;BME280;59810;48.800;9.086;2023-05-20T03:06:01;97719.19;;;10.46;88.88
71938;BME280;59810;48.800;9.086;2023-05-20T03:08:27;97716.06;;;10.37;89.67
71938;BME280;59810;48.800;9.086;2023-05-20T03:10:53;97713.94;;;10.39;89.11
71938;BME280;59810;48.800;9.086;2023-05-20T03:13:19;97713.72;;;10.41;89.04
71938;BME280;59810;48.800;9.086;2023-05-20T03:15:46;97710.53;;;10.44;88.84
71938;BME280;59810;48.800;9.086;2023-05-20T03:18:12;97715.69;;;10.45;88.76
71938;BME280;59810;48.800;9.086;2023-05-20T03:20:40;97705.44;;;10.47;88.57
71938;BME280;59810;48.800;9.086;2023-05-20T03:23:08;97706.50;;;10.46;88.64
71938;BME280;59810;48.800;9.086;2023-05-20T03:25:35;97709.53;;;10.50;88.55
71938;BME280;59810;48.800;9.086;2023-05-20T03:28:03;97710.53;;;10.44;89.99
71938;BME280;59810;48.800;9.086;2023-05-20T03:30:29;97715.81;;;10.39;89.93
71938;BME280;59810;48.800;9.086;2023-05-20T03:32:55;97713.47;;;10.42;89.47
71938;BME280;59810;48.800;9.086;2023-05-20T03:35:24;97709.03;;;10.36;90.49
71938;BME280;59810;48.800;9.086;2023-05-20T03:37:50;97709.78;;;10.32;90.92
71938;BME280;59810;48.800;9.086;2023-05-20T03:40:19;97713.78;;;10.29;91.07
71938;BME280;59810;48.800;9.086;2023-05-20T03:42:47;97714.59;;;10.29;90.90
71938;BME280;59810;48.800;9.086;2023-05-20T03:45:16;97710.03;;;10.30;90.42
71938;BME280;59810;48.800;9.086;2023-05-20T03:47:41;97715.41;;;10.30;90.31
71938;BME280;59810;48.800;9.086;2023-05-20T03:50:07;97722.69;;;10.29;90.06
71938;BME280;59810;48.800;9.086;2023-05-20T03:52:32;97718.94;;;10.31;90.09
71938;BME280;59810;48.800;9.086;2023-05-20T03:55:05;97717.88;;;10.32;90.10
71938;BME280;59810;48.800;9.086;2023-05-20T03:57:31;97726.28;;;10.35;90.08
71938;BME280;59810;48.800;9.086;2023-05-20T03:59:57;97727.19;;;10.24;91.61
71938;BME280;59810;48.800;9.086;2023-05-20T04:02:22;97720.00;;;10.29;90.83
71938;BME280;59810;48.800;9.086;2023-05-20T04:04:47;97724.09;;;10.32;92.06
71938;BME280;59810;48.800;9.086;2023-05-20T04:07:17;97713.63;;;10.36;91.53
71938;BME280;59810;48.800;9.086;2023-05-20T04:09:45;97713.94;;;10.39;91.20
71938;BME280;59810;48.800;9.086;2023-05-20T04:12:13;97711.97;;;10.35;92.51
71938;BME280;59810;48.800;9.086;2023-05-20T04:14:38;97712.97;;;10.28;92.74
71938;BME280;59810;48.800;9.086;2023-05-20T04:17:06;97717.31;;;10.29;93.20
71938;BME280;59810;48.800;9.086;2023-05-20T04:19:31;97719.84;;;10.36;92.79
71938;BME280;59810;48.800;9.086;2023-05-20T04:21:56;97720.41;;;10.38;93.69
71938;BME280;59810;48.800;9.086;2023-05-20T04:24:22;97714.19;;;10.38;94.09
71938;BME280;59810;48.800;9.086;2023-05-20T04:26:52;97715.34;;;10.42;93.90
71938;BME280;59810;48.800;9.086;2023-05-20T04:29:18;97715.09;;;10.43;94.43
71938;BME280;59810;48.800;9.086;2023-05-20T04:31:45;97704.88;;;10.45;94.33
71938;BME280;59810;48.800;9.086;2023-05-20T04:34:10;97707.41;;;10.52;93.22
71938;BME280;59810;48.800;9.086;2023-05-20T04:36:36;97709.66;;;10.60;92.68
71938;BME280;59810;48.800;9.086;2023-05-20T04:39:02;97695.75;;;10.68;92.35
71938;BME280;59810;48.800;9.086;2023-05-20T04:41:29;97691.56;;;10.77;91.31
71938;BME280;59810;48.800;9.086;2023-05-20T04:43:55;97694.91;;;10.84;90.69
71938;BME280;59810;48.800;9.086;2023-05-20T04:46:25;97689.31;;;10.91;90.04
71938;BME280;59810;48.800;9.086;2023-05-20T04:48:50;97689.13;;;10.98;89.59
71938;BME280;59810;48.800;9.086;2023-05-20T04:51:15;97691.88;;;11.03;89.47
71938;BME280;59810;48.800;9.086;2023-05-20T04:53:43;97697.38;;;11.08;89.03
71938;BME280;59810;48.800;9.086;2023-05-20T04:56:09;97693.66;;;11.14;88.48
71938;BME280;59810;48.800;9.086;2023-05-20T04:58:34;97691.00;;;11.19;87.89
71938;BME280;59810;48.800;9.086;2023-05-20T05:01:00;97698.94;;;11.26;87.83
71938;BME280;59810;48.800;9.086;2023-05-20T05:03:27;97695.47;;;11.30;87.41
71938;BME280;59810;48.800;9.086;2023-05-20T05:05:59;97700.66;;;11.37;86.90
71938;BME280;59810;48.800;9.086;2023-05-20T05:08:24;97699.94;;;11.41;86.79
71938;BME280;59810;48.800;9.086;2023-05-20T05:10:52;97701.06;;;11.45;86.48
71938;BME280;59810;48.800;9.086;2023-05-20T05:13:18;97697.28;;;11.46;86.04
71938;BME280;59810;48.800;9.086;2023-05-20T05:15:43;97701.09;;;11.50;86.14
71938;BME280;59810;48.800;9.086;2023-05-20T05:18:08;97697.38;;;11.57;85.73
71938;BME280;59810;48.800;9.086;2023-05-20T05:20:36;97698.50;;;11.61;85.32
71938;BME280;59810;48.800;9.086;2023-05-20T05:23:02;97692.03;;;11.62;85.07
71938;BME280;59810;48.800;9.086;2023-05-20T05:25:27;97691.50;;;11.65;84.17
71938;BME280;59810;48.800;9.086;2023-05-20T05:27:52;97691.25;;;11.66;84.35
71938;BME280;59810;48.800;9.086;2023-05-20T05:30:19;97686.66;;;11.67;84.60
71938;BME280;59810;48.800;9.086;2023-05-20T05:32:46;97681.56;;;11.70;84.22
71938;BME280;59810;48.800;9.086;2023-05-20T05:35:11;97677.28;;;11.74;83.82
71938;BME280;59810;48.800;9.086;2023-05-20T05:37:37;97671.06;;;11.74;84.68
71938;BME280;59810;48.800;9.086;2023-05-20T05:40:06;97669.75;;;11.76;84.53
71938;BME280;59810;48.800;9.086;2023-05-20T05:42:32;97674.75;;;11.90;84.10
71938;BME280;59810;48.800;9.086;2023-05-20T05:44:57;97680.19;;;11.95;83.70
71938;BME280;59810;48.800;9.086;2023-05-20T05:47:23;97671.25;;;11.94;83.63
71938;BME280;59810;48.800;9.086;2023-05-20T05:49:53;97666.44;;;12.01;83.54
71938;BME280;59810;48.800;9.086;2023-05-20T05:52:18;97664.63;;;12.07;84.56
71938;BME280;59810;48.800;9.086;2023-05-20T05:54:44;97667.38;;;12.12;83.48
71938;BME280;59810;48.800;9.086;2023-05-20T05:57:09;97667.91;;;12.14;82.82
71938;BME280;59810;48.800;9.086;2023-05-20T05:59:36;97676.59;;;12.16;83.28
71938;BME280;59810;48.800;9.086;2023-05-20T06:02:01;97678.00;;;12.24;82.92
71938;BME280;59810;48.800;9.086;2023-05-20T06:04:26;97670.72;;;12.29;81.92
71938;BME280;59810;48.800;9.086;2023-05-20T06:06:52;97668.06;;;12.34;82.03
71938;BME280;59810;48.800;9.086;2023-05-20T06:09:17;97669.69;;;12.35;81.93
71938;BME280;59810;48.800;9.086;2023-05-20T06:11:45;97665.41;;;12.39;82.80
71938;BME280;59810;48.800;9.086;2023-05-20T06:14:10;97666.81;;;12.47;82.35
71938;BME280;59810;48.800;9.086;2023-05-20T06:16:35;97666.25;;;12.45;82.14
71938;BME280;59810;48.800;9.086;2023-05-20T06:19:01;97666.59;;;12.59;81.66
71938;BME280;59810;48.800;9.086;2023-05-20T06:21:27;97660.94;;;12.65;81.52
71938;BME280;59810;48.800;9.086;2023-05-20T06:23:55;97666.97;;;12.72;81.34
71938;BME280;59810;48.800;9.086;2023-05-20T06:26:20;97665.91;;;12.78;81.12
71938;BME280;59810;48.800;9.086;2023-05-20T06:28:46;97672.72;;;12.86;80.30
71938;BME280;59810;48.800;9.086;2023-05-20T06:31:12;97659.44;;;12.85;80.81
71938;BME280;59810;48.800;9.086;2023-05-20T06:33:37;97648.34;;;12.86;80.98
71938;BME280;59810;48.800;9.086;2023-05-20T06:36:03;97651.84;;;12.87;81.27
71938;BME280;59810;48.800;9.086;2023-05-20T06:38:29;97654.59;;;12.92;81.45
71938;BME280;59810;48.800;9.086;2023-05-20T06:40:54;97647.59;;;13.01;81.39
71938;BME280;59810;48.800;9.086;2023-05-20T06:43:20;97647.09;;;13.09;81.72
71938;BME280;59810;48.800;9.086;2023-05-20T06:45:45;97641.69;;;13.14;82.06
71938;BME280;59810;48.800;9.086;2023-05-20T06:48:10;97642.00;;;13.28;80.83
71938;BME280;59810;48.800;9.086;2023-05-20T06:50:36;97645.84;;;13.42;81.33
71938;BME280;59810;48.800;9.086;2023-05-20T06:53:02;97631.75;;;13.50;79.94
71938;BME280;59810;48.800;9.086;2023-05-20T06:55:30;97635.88;;;13.68;80.24
71938;BME280;59810;48.800;9.086;2023-05-20T06:57:55;97635.88;;;13.78;80.47
71938;BME280;59810;48.800;9.086;2023-05-20T07:00:21;97636.16;;;13.87;80.00
71938;BME280;59810;48.800;9.086;2023-05-20T07:02:46;97631.00;;;13.95;79.13
71938;BME280;59810;48.800;9.086;2023-05-20T07:05:12;97627.22;;;14.07;79.08
71938;BME280;59810;48.800;9.086;2023-05-20T07:07:41;97627.75;;;14.14;77.91
71938;BME280;59810;48.800;9.086;2023-05-20T07:10:06;97629.09;;;14.21;77.89
71938;BME280;59810;48.800;9.086;2023-05-20T07:12:32;97626.63;;;14.30;78.69
71938;BME280;59810;48.800;9.086;2023-05-20T07:14:58;97616.84;;;14.29;77.86
71938;BME280;59810;48.800;9.086;2023-05-20T07:17:23;97618.47;;;14.25;77.64
71938;BME280;59810;48.800;9.086;2023-05-20T07:19:49;97615.50;;;14.26;78.26
71938;BME280;59810;48.800;9.086;2023-05-20T07:22:15;97610.88;;;14.37;78.28
71938;BME280;59810;48.800;9.086;2023-05-20T07:24:45;97609.50;;;14.50;78.04
71938;BME280;59810;48.800;9.086;2023-05-20T07:27:10;97599.72;;;14.54;76.93
71938;BME280;59810;48.800;9.086;2023-05-20T07:29:36;97601.59;;;14.69;77.08
71938;BME280;59810;48.800;9.086;2023-05-20T07:32:04;97596.94;;;14.79;75.84
71938;BME280;59810;48.800;9.086;2023-05-20T07:34:30;97601.56;;;14.79;75.36
71938;BME280;59810;48.800;9.086;2023-05-20T07:36:57;97604.81;;;14.81;74.40
71938;BME280;59810;48.800;9.086;2023-05-20T07:39:23;97598.56;;;14.75;74.78
71938;BME280;59810;48.800;9.086;2023-05-20T07:41:51;97600.94;;;14.92;75.71
71938;BME280;59810;48.800;9.086;2023-05-20T07:44:16;97599.78;;;15.08;76.15
71938;BME280;59810;48.800;9.086;2023-05-20T07:46:43;97601.97;;;15.11;74.13
71938;BME280;59810;48.800;9.086;2023-05-20T07:49:09;97594.25;;;15.23;73.82
71938;BME280;59810;48.800;9.086;2023-05-20T07:51:35;97591.84;;;15.17;74.27
71938;BME280;59810;48.800;9.086;2023-05-20T07:54:00;97586.09;;;15.23;73.81
71938;BME280;59810;48.800;9.086;2023-05-20T07:56:26;97591.22;;;15.35;72.83
71938;BME280;59810;48.800;9.086;2023-05-20T07:58:52;97588.19;;;15.42;73.70
71938;BME280;59810;48.800;9.086;2023-05-20T08:01:19;97590.38;;;15.40;71.70
71938;BME280;59810;48.800;9.086;2023-05-20T08:03:44;97584.56;;;15.51;72.40
71938;BME280;59810;48.800;9.086;2023-05-20T08:06:10;97586.44;;;15.56;71.71
71938;BME280;59810;48.800;9.086;2023-05-20T08:08:35;97599.59;;;15.44;71.41
71938;BME280;59810;48.800;9.086;2023-05-20T08:11:00;97592.97;;;15.55;72.03
71938;BME280;59810;48.800;9.086;2023-05-20T08:13:28;97589.66;;;15.68;71.04
71938;BME280;59810;48.800;9.086;2023-05-20T08:15:54;97580.19;;;15.61;70.04
71938;BME280;59810;48.800;9.086;2023-05-20T08:18:19;97580.38;;;15.74;71.73
71938;BME280;59810;48.800;9.086;2023-05-20T08:20:44;97584.91;;;15.84;71.75
71938;BME280;59810;48.800;9.086;2023-05-20T08:23:12;97595.50;;;15.85;71.16
71938;BME280;59810;48.800;9.086;2023-05-20T08:25:38;97591.34;;;15.98;71.62
71938;BME280;59810;48.800;9.086;2023-05-20T08:28:04;97597.59;;;15.99;71.16
71938;BME280;59810;48.800;9.086;2023-05-20T08:30:33;97592.19;;;15.94;70.15
71938;BME280;59810;48.800;9.086;2023-05-20T08:32:59;97607.91;;;16.02;70.48
71938;BME280;59810;48.800;9.086;2023-05-20T08:35:25;97603.75;;;16.09;70.01
71938;BME280;59810;48.800;9.086;2023-05-20T08:37:50;97599.84;;;16.21;70.71
71938;BME280;59810;48.800;9.086;2023-05-20T08:40:18;97595.13;;;16.31;71.17
71938;BME280;59810;48.800;9.086;2023-05-20T08:42:47;97599.66;;;16.41;70.21
71938;BME280;59810;48.800;9.086;2023-05-20T08:45:16;97602.25;;;16.51;69.88
71938;BME280;59810;48.800;9.086;2023-05-20T08:47:42;97604.63;;;16.58;69.95
71938;BME280;59810;48.800;9.086;2023-05-20T08:50:09;97610.06;;;16.63;69.95
71938;BME280;59810;48.800;9.086;2023-05-20T08:52:36;97611.13;;;16.67;68.92
71938;BME280;59810;48.800;9.086;2023-05-20T08:55:06;97608.34;;;16.72;68.52
71938;BME280;59810;48.800;9.086;2023-05-20T08:57:34;97600.09;;;16.77;67.13
71938;BME280;59810;48.800;9.086;2023-05-20T09:00:01;97600.25;;;16.62;67.94
71938;BME280;59810;48.800;9.086;2023-05-20T09:02:37;97597.59;;;16.80;68.99
71938;BME280;59810;48.800;9.086;2023-05-20T09:05:03;97587.94;;;16.93;67.90
71938;BME280;59810;48.800;9.086;2023-05-20T09:07:29;97597.78;;;16.89;65.67
71938;BME280;59810;48.800;9.086;2023-05-20T09:09:57;97589.56;;;16.94;67.05
71938;BME280;59810;48.800;9.086;2023-05-20T09:12:22;97595.81;;;16.95;65.11
71938;BME280;59810;48.800;9.086;2023-05-20T09:14:48;97592.03;;;16.91;67.92
71938;BME280;59810;48.800;9.086;2023-05-20T09:17:14;97588.91;;;17.02;67.63
71938;BME280;59810;48.800;9.086;2023-05-20T09:19:39;97584.09;;;17.13;67.61
71938;BME280;59810;48.800;9.086;2023-05-20T09:22:05;97583.75;;;17.20;67.50
71938;BME280;59810;48.800;9.086;2023-05-20T09:24:31;97583.41;;;17.26;67.63
71938;BME280;59810;48.800;9.086;2023-05-20T09:26:57;97578.94;;;17.11;65.61
71938;BME280;59810;48.800;9.086;2023-05-20T09:29:23;97575.03;;;17.18;67.12
71938;BME280;59810;48.800;9.086;2023-05-20T09:31:51;97572.22;;;17.23;66.22
71938;BME280;59810;48.800;9.086;2023-05-20T09:34:19;97572.72;;;17.30;66.45
71938;BME280;59810;48.800;9.086;2023-05-20T09:36:49;97574.69;;;17.24;62.56
71938;BME280;59810;48.800;9.086;2023-05-20T09:39:24;97572.09;;;17.14;65.01
71938;BME280;59810;48.800;9.086;2023-05-20T09:41:59;97571.19;;;17.19;65.22
71938;BME280;59810;48.800;9.086;2023-05-20T09:44:27;97570.06;;;17.25;65.10
71938;BME280;59810;48.800;9.086;2023-05-20T09:46:53;97571.38;;;17.46;65.67
71938;BME280;59810;48.800;9.086;2023-05-20T09:49:21;97571.44;;;17.60;63.79
71938;BME280;59810;48.800;9.086;2023-05-20T09:51:50;97565.38;;;17.63;62.68
71938;BME280;59810;48.800;9.086;2023-05-20T09:54:20;97564.72;;;17.52;63.19
71938;BME280;59810;48.800;9.086;2023-05-20T09:56:46;97572.34;;;17.36;63.84
71938;BME280;59810;48.800;9.086;2023-05-20T09:59:14;97576.22;;;17.49;64.83
71938;BME280;59810;48.800;9.086;2023-05-20T10:01:46;97567.75;;;17.51;64.09
71938;BME280;59810;48.800;9.086;2023-05-20T10:04:12;97554.75;;;17.61;62.30
71938;BME280;59810;48.800;9.086;2023-05-20T10:06:55;97557.41;;;17.85;62.52
71938;BME280;59810;48.800;9.086;2023-05-20T10:15:26;97547.53;;;18.03;61.39
71938;BME280;59810;48.800;9.086;2023-05-20T10:18:07;97544.81;;;18.03;61.25
71938;BME280;59810;48.800;9.086;2023-05-20T10:20:55;97535.69;;;17.94;61.51
71938;BME280;59810;48.800;9.086;2023-05-20T10:23:21;97539.19;;;18.27;61.96
71938;BME280;59810;48.800;9.086;2023-05-20T10:25:51;97539.34;;;18.63;62.58
71938;BME280;59810;48.800;9.086;2023-05-20T10:28:30;97532.63;;;18.83;60.66
71938;BME280;59810;48.800;9.086;2023-05-20T10:30:59;97519.03;;;19.05;58.83
71938;BME280;59810;48.800;9.086;2023-05-20T10:33:28;97527.72;;;19.21;60.30
71938;BME280;59810;48.800;9.086;2023-05-20T10:35:58;97539.97;;;18.87;58.40
71938;BME280;59810;48.800;9.086;2023-05-20T10:38:25;97529.41;;;18.81;60.20
71938;BME280;59810;48.800;9.086;2023-05-20T10:40:53;97537.09;;;18.79;59.89
71938;BME280;59810;48.800;9.086;2023-05-20T10:43:26;97531.94;;;18.77;60.44
71938;BME280;59810;48.800;9.086;2023-05-20T10:45:55;97530.63;;;18.75;59.18
71938;BME280;59810;48.800;9.086;2023-05-20T10:48:25;97536.63;;;18.63;59.48
71938;BME280;59810;48.800;9.086;2023-05-20T10:50:55;97524.44;;;18.83;60.49
71938;BME280;59810;48.800;9.086;2023-05-20T10:53:22;97521.81;;;18.91;61.07
71938;BME280;59810;48.800;9.086;2023-05-20T10:55:50;97517.09;;;19.06;60.15
71938;BME280;59810;48.800;9.086;2023-05-20T10:58:16;97521.03;;;19.27;59.67
71938;BME280;59810;48.800;9.086;2023-05-20T11:00:43;97517.28;;;19.23;58.57
71938;BME280;59810;48.800;9.086;2023-05-20T11:03:12;97504.22;;;19.56;58.03
71938;BME280;59810;48.800;9.086;2023-05-20T11:05:38;97510.25;;;19.89;57.16
71938;BME280;59810;48.800;9.086;2023-05-20T11:08:08;97502.66;;;19.86;56.14
71938;BME280;59810;48.800;9.086;2023-05-20T11:10:41;97497.03;;;19.91;55.21
71938;BME280;59810;48.800;9.086;2023-05-20T11:13:07;97498.97;;;19.91;56.15
71938;BME280;59810;48.800;9.086;2023-05-20T11:15:34;97500.59;;;19.69;56.05
71938;BME280;59810;48.800;9.086;2023-05-20T11:18:02;97497.34;;;19.67;56.32
71938;BME280;59810;48.800;9.086;2023-05-20T11:20:28;97480.91;;;19.67;58.16
71938;BME280;59810;48.800;9.086;2023-05-20T11:23:00;97483.53;;;19.72;57.57
71938;BME280;59810;48.800;9.086;2023-05-20T11:25:27;97485.44;;;19.94;57.37
71938;BME280;59810;48.800;9.086;2023-05-20T11:27:52;97474.47;;;20.25;55.25
71938;BME280;59810;48.800;9.086;2023-05-20T11:30:18;97477.16;;;20.47;53.58
71938;BME280;59810;48.800;9.086;2023-05-20T11:33:00;97476.94;;;20.84;53.28
71938;BME280;59810;48.800;9.086;2023-05-20T11:35:28;97482.13;;;20.94;54.52
71938;BME280;59810;48.800;9.086;2023-05-20T11:37:55;97481.63;;;20.83;52.23
71938;BME280;59810;48.800;9.086;2023-05-20T11:40:27;97480.66;;;20.88;52.75
71938;BME280;59810;48.800;9.086;2023-05-20T11:42:57;97480.19;;;21.11;52.91
71938;BME280;59810;48.800;9.086;2023-05-20T11:45:25;97463.75;;;21.37;52.18
71938;BME280;59810;48.800;9.086;2023-05-20T11:48:00;97470.13;;;20.81;51.84
71938;BME280;59810;48.800;9.086;2023-05-20T11:50:26;97467.59;;;20.85;51.96
71938;BME280;59810;48.800;9.086;2023-05-20T11:52:58;97464.16;;;20.79;52.74
71938;BME280;59810;48.800;9.086;2023-05-20T11:55:25;97464.53;;;20.95;52.57
71938;BME280;59810;48.800;9.086;2023-05-20T11:57:53;97463.66;;;20.77;52.93
71938;BME280;59810;48.800;9.086;2023-05-20T12:00:28;97460.91;;;20.68;52.64
71938;BME280;59810;48.800;9.086;2023-05-20T12:02:53;97461.53;;;20.57;52.69
71938;BME280;59810;48.800;9.086;2023-05-20T12:05:19;97464.63;;;20.72;53.49
71938;BME280;59810;48.800;9.086;2023-05-20T12:07:45;97457.06;;;20.78;53.28
71938;BME280;59810;48.800;9.086;2023-05-20T12:10:11;97459.00;;;20.77;51.89
71938;BME280;59810;48.800;9.086;2023-05-20T12:12:38;97449.66;;;20.87;52.18
71938;BME280;59810;48.800;9.086;2023-05-20T12:15:04;97451.28;;;20.97;53.66
71938;BME280;59810;48.800;9.086;2023-05-20T12:17:42;97458.25;;;21.20;52.62
71938;BME280;59810;48.800;9.086;2023-05-20T12:20:08;97447.69;;;21.91;50.23
71938;BME280;59810;48.800;9.086;2023-05-20T12:22:38;97436.53;;;22.93;50.61
71938;BME280;59810;48.800;9.086;2023-05-20T12:25:09;97431.75;;;23.03;48.01
71938;BME280;59810;48.800;9.086;2023-05-20T12:27:34;97439.88;;;23.41;46.14
71938;BME280;59810;48.800;9.086;2023-05-20T12:30:00;97430.28;;;23.47;45.24
71938;BME280;59810;48.800;9.086;2023-05-20T12:32:26;97426.63;;;23.55;46.57
71938;BME280;59810;48.800;9.086;2023-05-20T12:34:51;97426.59;;;22.72;46.06
71938;BME280;59810;48.800;9.086;2023-05-20T12:37:16;97427.66;;;22.58;45.06
71938;BME280;59810;48.800;9.086;2023-05-20T12:39:42;97428.34;;;22.76;45.51
71938;BME280;59810;48.800;9.086;2023-05-20T12:42:07;97440.00;;;22.52;46.56
71938;BME280;59810;48.800;9.086;2023-05-20T12:44:33;97430.63;;;22.83;45.71
71938;BME280;59810;48.800;9.086;2023-05-20T12:46:58;97428.16;;;22.90;45.31
71938;BME280;59810;48.800;9.086;2023-05-20T12:49:24;97419.63;;;22.74;44.72
71938;BME280;59810;48.800;9.086;2023-05-20T12:51:49;97426.22;;;23.11;47.00
71938;BME280;59810;48.800;9.086;2023-05-20T12:54:16;97430.84;;;23.19;45.52
71938;BME280;59810;48.800;9.086;2023-05-20T12:56:44;97423.53;;;22.73;45.67
71938;BME280;59810;48.800;9.086;2023-05-20T12:59:12;97420.41;;;22.54;45.24
71938;BME280;59810;48.800;9.086;2023-05-20T13:01:38;97418.97;;;22.77;47.21
71938;BME280;59810;48.800;9.086;2023-05-20T13:04:04;97419.41;;;23.09;46.44
71938;BME280;59810;48.800;9.086;2023-05-20T13:06:29;97409.88;;;23.27;45.51